Boryslav — ENLB — position and weather

sailwx.info

Track history (hours):
 
Tides and Currents Weather Stations Pressure Air Temp Water Temp Dewpoint Dewpoint Depression Visibility Wind Speed Wind Dir Waves Ship Positions

Boryslav

Last reported at 2017-Feb-21 08:32 UTC. Time now 2017-Feb-21 14:45 UTC.
Position N 44°43' E 021°02'.

Length 86 m; draft 2.1 m.

MMSI: 272088700.

Date/timePositionNaut miles runAvg speedWind from/ knotsBaromVisibWave heightAir tempDewpointWater temp
2017-Feb-21 08:32N 44°43' E 021°02'3 2.7
2017-Feb-21 07:33N 44°44' E 021°06'3 2.6
2017-Feb-21 06:33N 44°45' E 021°09'2 2.4
2017-Feb-21 05:33N 44°46' E 021°12'3 2.7
2017-Feb-21 04:33N 44°48' E 021°15'3 3.0
2017-Feb-21 03:31N 44°49' E 021°19'5 2.3
2017-Feb-21 01:33N 44°46' E 021°25'3 2.7
2017-Feb-21 00:33N 44°46' E 021°28'2 1.9
2017-Feb-20 23:33N 44°46' E 021°31'0 0.2
2017-Feb-20 22:33N 44°46' E 021°31'0 0.2
2017-Feb-20 21:33N 44°46' E 021°31'0 0.2
2017-Feb-20 20:33N 44°46' E 021°31'0 0.0
2017-Feb-20 19:34N 44°46' E 021°31'1 0.8
2017-Feb-20 18:33N 44°46' E 021°32'3 2.8
2017-Feb-20 17:33N 44°45' E 021°36'2 2.4
2017-Feb-20 16:33N 44°43' E 021°37'2 2.5
2017-Feb-20 15:33N 44°41' E 021°40'16 2.6
2017-Feb-20 09:25N 44°36' E 022°01'3 3.1
2017-Feb-20 08:34N 44°33' E 022°02'3 3.2
2017-Feb-20 07:33N 44°31' E 022°04'3 3.2
2017-Feb-20 06:33N 44°29' E 022°08'3 2.8
2017-Feb-20 05:33N 44°29' E 022°11'4 3.1
2017-Feb-20 04:14N 44°33' E 022°13'8 3.2
2017-Feb-20 01:33N 44°40' E 022°20'3 2.9
2017-Feb-20 00:33N 44°41' E 022°24'3 2.9
2017-Feb-19 23:33N 44°43' E 022°27'3 3.2
2017-Feb-19 22:34N 44°41' E 022°31'1 1.2
2017-Feb-19 21:33N 44°40' E 022°32'1 0.6
2017-Feb-19 20:33N 44°40' E 022°33'3 3.0
2017-Feb-19 19:33N 44°38' E 022°35'3 3.2
2017-Feb-19 18:33N 44°37' E 022°40'3 3.3
2017-Feb-19 17:33N 44°35' E 022°44'3 3.2
2017-Feb-19 16:33N 44°32' E 022°45'3 3.3
2017-Feb-19 15:34N 44°31' E 022°41'4 3.9
2017-Feb-19 14:33N 44°33' E 022°36'3 3.0
2017-Feb-19 13:33N 44°31' E 022°34'4 2.7
2017-Feb-19 12:11N 44°29' E 022°29'2 2.4
2017-Feb-19 11:33N 44°28' E 022°27'3 3.2
2017-Feb-19 10:33N 44°25' E 022°30'3 3.2
2017-Feb-19 09:34N 44°22' E 022°31'3 3.2
2017-Feb-19 08:33N 44°19' E 022°33'2 1.6
2017-Feb-19 07:33N 44°18' E 022°34'2 1.6
2017-Feb-19 06:33N 44°18' E 022°36'1 0.9
2017-Feb-19 05:33N 44°18' E 022°37'13 0.9
2017-Feb-18 14:26N 44°09' E 022°50'2 2.6
2017-Feb-18 13:34N 44°07' E 022°53'3 2.5
2017-Feb-18 12:34N 44°06' E 022°56'3 2.6
2017-Feb-18 11:33N 44°06' E 022°59'3 2.7
2017-Feb-18 10:34N 44°04' E 023°03'2 2.4
2017-Feb-18 09:34N 44°02' E 023°02'2 2.5
2017-Feb-18 08:33N 44°00' E 022°59'3 2.7
2017-Feb-18 07:33N 43°60' E 022°56'2 2.1
2017-Feb-18 06:32N 43°59' E 022°53'3 2.7
2017-Feb-18 05:33N 43°56' E 022°52'3 2.9
2017-Feb-18 04:34N 43°54' E 022°51'3 2.8
2017-Feb-18 03:34N 43°51' E 022°51'3 2.7
2017-Feb-18 02:34N 43°50' E 022°54'3 2.8
2017-Feb-18 01:31N 43°49' E 022°58'3 2.8
2017-Feb-18 00:33N 43°48' E 023°02'2 2.4
2017-Feb-17 23:33N 43°48' E 023°05'3 2.6
2017-Feb-17 22:31N 43°48' E 023°09'2 2.4
2017-Feb-17 21:33N 43°50' E 023°11'3 2.7
2017-Feb-17 20:33N 43°50' E 023°15'3 2.7
2017-Feb-17 19:33N 43°51' E 023°19'3 2.8
2017-Feb-17 18:27N 43°51' E 023°23'3 2.9
2017-Feb-17 17:33N 43°51' E 023°27'3 2.6
2017-Feb-17 16:33N 43°50' E 023°30'3 2.7
2017-Feb-17 15:33N 43°48' E 023°33'3 2.4
2017-Feb-17 14:30N 43°48' E 023°36'  
Track history (hours):
 
Tides and Currents Weather Stations Pressure Air Temp Water Temp Dewpoint Dewpoint Depression Visibility Wind Speed Wind Dir Waves Ship Positions

Boryslav

Last reported at 2017-Feb-21 08:32 UTC. Time now 2017-Feb-21 14:45 UTC.
Position N 44°43' E 021°02'.

Length 86 m; draft 2.1 m.

MMSI: 272088700.

Date/timePositionNaut miles runAvg speedWind from/ knotsBaromVisibWave heightAir tempDewpointWater temp
2017-Feb-21 08:32N 44°43' E 021°02'3 2.7
2017-Feb-21 07:33N 44°44' E 021°06'3 2.6
2017-Feb-21 06:33N 44°45' E 021°09'2 2.4
2017-Feb-21 05:33N 44°46' E 021°12'3 2.7
2017-Feb-21 04:33N 44°48' E 021°15'3 3.0
2017-Feb-21 03:31N 44°49' E 021°19'5 2.3
2017-Feb-21 01:33N 44°46' E 021°25'3 2.7
2017-Feb-21 00:33N 44°46' E 021°28'2 1.9
2017-Feb-20 23:33N 44°46' E 021°31'0 0.2
2017-Feb-20 22:33N 44°46' E 021°31'0 0.2
2017-Feb-20 21:33N 44°46' E 021°31'0 0.2
2017-Feb-20 20:33N 44°46' E 021°31'0 0.0
2017-Feb-20 19:34N 44°46' E 021°31'1 0.8
2017-Feb-20 18:33N 44°46' E 021°32'3 2.8
2017-Feb-20 17:33N 44°45' E 021°36'2 2.4
2017-Feb-20 16:33N 44°43' E 021°37'2 2.5
2017-Feb-20 15:33N 44°41' E 021°40'16 2.6
2017-Feb-20 09:25N 44°36' E 022°01'3 3.1
2017-Feb-20 08:34N 44°33' E 022°02'3 3.2
2017-Feb-20 07:33N 44°31' E 022°04'3 3.2
2017-Feb-20 06:33N 44°29' E 022°08'3 2.8
2017-Feb-20 05:33N 44°29' E 022°11'4 3.1
2017-Feb-20 04:14N 44°33' E 022°13'8 3.2
2017-Feb-20 01:33N 44°40' E 022°20'3 2.9
2017-Feb-20 00:33N 44°41' E 022°24'3 2.9
2017-Feb-19 23:33N 44°43' E 022°27'3 3.2
2017-Feb-19 22:34N 44°41' E 022°31'1 1.2
2017-Feb-19 21:33N 44°40' E 022°32'1 0.6
2017-Feb-19 20:33N 44°40' E 022°33'3 3.0
2017-Feb-19 19:33N 44°38' E 022°35'3 3.2
2017-Feb-19 18:33N 44°37' E 022°40'3 3.3
2017-Feb-19 17:33N 44°35' E 022°44'3 3.2
2017-Feb-19 16:33N 44°32' E 022°45'3 3.3
2017-Feb-19 15:34N 44°31' E 022°41'4 3.9
2017-Feb-19 14:33N 44°33' E 022°36'3 3.0
2017-Feb-19 13:33N 44°31' E 022°34'4 2.7
2017-Feb-19 12:11N 44°29' E 022°29'2 2.4
2017-Feb-19 11:33N 44°28' E 022°27'3 3.2
2017-Feb-19 10:33N 44°25' E 022°30'3 3.2
2017-Feb-19 09:34N 44°22' E 022°31'3 3.2
2017-Feb-19 08:33N 44°19' E 022°33'2 1.6
2017-Feb-19 07:33N 44°18' E 022°34'2 1.6
2017-Feb-19 06:33N 44°18' E 022°36'1 0.9
2017-Feb-19 05:33N 44°18' E 022°37'13 0.9
2017-Feb-18 14:26N 44°09' E 022°50'2 2.6
2017-Feb-18 13:34N 44°07' E 022°53'3 2.5
2017-Feb-18 12:34N 44°06' E 022°56'3 2.6
2017-Feb-18 11:33N 44°06' E 022°59'3 2.7
2017-Feb-18 10:34N 44°04' E 023°03'2 2.4
2017-Feb-18 09:34N 44°02' E 023°02'2 2.5
2017-Feb-18 08:33N 44°00' E 022°59'3 2.7
2017-Feb-18 07:33N 43°60' E 022°56'2 2.1
2017-Feb-18 06:32N 43°59' E 022°53'3 2.7
2017-Feb-18 05:33N 43°56' E 022°52'3 2.9
2017-Feb-18 04:34N 43°54' E 022°51'3 2.8
2017-Feb-18 03:34N 43°51' E 022°51'3 2.7
2017-Feb-18 02:34N 43°50' E 022°54'3 2.8
2017-Feb-18 01:31N 43°49' E 022°58'3 2.8
2017-Feb-18 00:33N 43°48' E 023°02'2 2.4
2017-Feb-17 23:33N 43°48' E 023°05'3 2.6
2017-Feb-17 22:31N 43°48' E 023°09'2 2.4
2017-Feb-17 21:33N 43°50' E 023°11'3 2.7
2017-Feb-17 20:33N 43°50' E 023°15'3 2.7
2017-Feb-17 19:33N 43°51' E 023°19'3 2.8
2017-Feb-17 18:27N 43°51' E 023°23'3 2.9
2017-Feb-17 17:33N 43°51' E 023°27'3 2.6
2017-Feb-17 16:33N 43°50' E 023°30'3 2.7
2017-Feb-17 15:33N 43°48' E 023°33'3 2.4
2017-Feb-17 14:30N 43°48' E 023°36'  

Dump ship's entire track history